4XCWE LLHZ-LLHZ

Flight info

Callsign 4XCWE
Flight time N/A
Altitude 2500
Route CVFR
Aircraft C152/L-VD/A

Departure

Time 2026-04-28 09:24
Airport Herzliya Airport (LLHZ)

Arrival

Time N/A
Airport Herzliya Airport (LLHZ)
Time Latitude Longitude Altitude Speed Heading
2026-04-28 09:21 32.17881 34.83779 120 ft 0 kts 110°
2026-04-28 09:22 32.17884 34.83791 118 ft 10 kts 50°
2026-04-28 09:22 32.17923 34.83819 123 ft 13 kts 301°
2026-04-28 09:23 32.17990 34.83593 109 ft 55 kts 290°
2026-04-28 09:23 32.18150 34.83097 251 ft 64 kts 296°
2026-04-28 09:23 32.18577 34.82999 438 ft 76 kts 11°
2026-04-28 09:23 32.19104 34.83169 563 ft 79 kts
2026-04-28 09:24 32.19597 34.83301 802 ft 72 kts
2026-04-28 09:24 32.20096 34.83478 980 ft 76 kts
2026-04-28 09:24 32.20550 34.83663 1239 ft 65 kts
2026-04-28 09:24 32.21040 34.83792 1374 ft 74 kts
2026-04-28 09:25 32.21571 34.83886 1521 ft 80 kts 11°
2026-04-28 09:25 32.22085 34.84108 1674 ft 84 kts 17°
2026-04-28 09:25 32.22615 34.84324 1830 ft 77 kts
2026-04-28 09:25 32.23109 34.84442 2031 ft 68 kts
2026-04-28 09:26 32.23570 34.84561 2206 ft 67 kts 13°
2026-04-28 09:26 32.24008 34.84677 2408 ft 63 kts 12°
2026-04-28 09:26 32.24469 34.84803 2481 ft 78 kts
2026-04-28 09:26 32.25063 34.84947 2482 ft 92 kts 11°
2026-04-28 09:27 32.26386 34.85141 2510 ft 98 kts 358°
2026-04-28 09:27 32.27078 34.85127 2487 ft 101 kts
2026-04-28 09:27 32.27492 34.85353 2466 ft 106 kts 47°
2026-04-28 09:28 32.27522 34.86074 2505 ft 87 kts 136°
2026-04-28 09:28 32.26954 34.86152 2154 ft 82 kts 192°
2026-04-28 09:28 32.26415 34.86052 1950 ft 73 kts 196°
2026-04-28 09:28 32.25936 34.85970 1779 ft 67 kts 192°
2026-04-28 09:29 32.25504 34.85887 1664 ft 60 kts 199°